METAR Data
IDs: Format: Raw Decoded Include TAF

Data at: 2048 UTC 21 Sep 2021

KMWT 211953Z AUTO VRB04KT 8SM -RA OVC022 20/19 A3008 RMK AO2 RAB12 SLP178 P0001 T02000189
KMWT 211936Z AUTO VRB06KT 10SM -RA FEW010 OVC018 20/19 A3009 RMK AO2 RAB12 P0000 T02000189
KMWT 211853Z AUTO VRB04KT 10SM OVC010 21/19 A3008 RMK AO2 CIG 008V015 SLP178 T02110194
KMWT 211840Z AUTO 33005KT 10SM BKN012 OVC019 21/20 A3009 RMK AO2 T02110200
KMWT 211803Z AUTO 31003KT 10SM FEW006 SCT010 OVC016 21/20 A3009 RMK AO2 T02110200
KMWT 211753Z AUTO VRB04KT 10SM BKN007 OVC016 22/21 A3008 RMK AO2 RAB11E28 CIG 004V011 SLP176 P0001 60059 T02170206 10261 20217 53010
KMWT 211731Z AUTO VRB04KT 9SM BKN009 OVC013 23/22 A3007 RMK AO2 RAB11E28 CIG 006V011 P0001 T02280217
KMWT 211722Z AUTO 31006KT 9SM -RA OVC010 23/22 A3007 RMK AO2 RAB11 CIG 006V013 P0001 T02330217
KMWT 211700Z AUTO VRB03KT 10SM OVC009 24/22 A3006 RMK AO2 CIG 006V012 T02390222
KMWT 211653Z AUTO 00000KT 9SM OVC011 24/22 A3006 RMK AO2 RAE24 CIG 007V012 SLP167 P0003 T02390222
KMWT 211619Z AUTO 00000KT 8SM -RA BKN014 BKN022 OVC100 23/22 A3008 RMK AO2 P0003 T02280217
KMWT 211553Z AUTO 31004KT 2SM +RA BR SCT029 SCT060 OVC100 22/21 A3007 RMK AO2 SLP171 P0023 T02220211
KMWT 211540Z AUTO 30003KT 2 1/2SM RA BR FEW032 SCT085 OVC110 22/22 A3007 RMK AO2 P0021 T02220217
KMWT 211521Z AUTO 19003KT 3SM -RA BR FEW031 BKN050 OVC110 22/21 A3006 RMK AO2 P0021 T02170211
KMWT 211459Z AUTO 00000KT 1SM +RA BR FEW012 BKN035 OVC075 23/22 A3006 RMK AO2 P0006 T02280217
KMWT 211453Z AUTO VRB03KT 1/2SM +RA FG FEW012 BKN027 OVC075 23/22 A3005 RMK AO2 RAB03E16B36 SLP165 P0032 60032 T02330222 51022
KMWT 211449Z AUTO 35004KT 1/4SM +RA FG FEW012 BKN020 BKN029 24/23 A3005 RMK AO2 RAB03E16B36 P0020
KMWT 211441Z AUTO 32008KT 1 1/2SM +RA BR FEW012 BKN029 BKN050 24/23 A3005 RMK AO2 RAB03E16B36 PRESRR P0002 T02440228
KMWT 211253Z AUTO 00000KT 6SM BR CLR 23/22 A2999 RMK AO2 SLP142 T02330217
KMWT 211153Z AUTO 00000KT 6SM BR CLR 23/22 A2998 RMK AO2 RAE01 SLP139 P0000 60000 T02280217 10267 20228 51026
KMWT 211053Z AUTO 00000KT 9SM -RA OVC100 23/22 A2997 RMK AO2 RAB48 SLP134 P0000 T02330217
KMWT 210953Z AUTO 00000KT 10SM OVC110 24/22 A2992 RMK AO2 SLP119 T02390217
KMWT 210853Z AUTO 00000KT 10SM CLR 24/22 A2990 RMK AO2 SLP109 T02390217 58005
KMWT 210753Z AUTO 00000KT 10SM CLR 24/21 A2991 RMK AO2 SLP114 T02390211
KMWT 210653Z AUTO 00000KT 10SM CLR 24/22 A2991 RMK AO2 SLP115 T02440217
KMWT 210553Z AUTO 00000KT 10SM CLR 26/22 A2991 RMK AO2 SLP115 T02610217 10283 20250 403170206 53006
KMWT 210453Z AUTO 00000KT 10SM CLR 26/22 A2990 RMK AO2 SLP111 T02560217
KMWT 210353Z AUTO 00000KT 10SM CLR 27/22 A2990 RMK AO2 SLP111 T02670217
KMWT 210253Z AUTO 00000KT 10SM CLR 28/22 A2989 RMK AO2 SLP110 T02780217 53012
KMWT 210153Z AUTO 00000KT 10SM CLR 26/22 A2988 RMK AO2 SLP105 T02610217
KMWT 210053Z AUTO 00000KT 10SM CLR 26/22 A2986 RMK AO2 SLP099 T02610222
KMWT 202353Z AUTO 00000KT 10SM CLR 28/22 A2986 RMK AO2 SLP098 T02830222 10317 20278 53001
KMWT 202253Z AUTO VRB06KT 10SM CLR 30/22 A2984 RMK AO2 SLP091 T03000217
KMWT 202153Z AUTO VRB05KT 10SM FEW035 31/22 A2985 RMK AO2 SLP095 T03060217
KMWT 202053Z AUTO VRB06KT 10SM FEW033 31/22 A2985 RMK AO2 SLP097 T03110222 56019